F/V Hebeilan — FULR — position and weather

sailwx.info

Track history (hours):
 
Tides and Currents Weather Stations Pressure Air Temp Water Temp Dewpoint Dewpoint Depression Visibility Wind Speed Wind Dir Waves Ship Positions

F/V Hebeilan

Last reported at 2017-Nov-18 02:44 UTC. Time now 2017-Nov-19 07:02 UTC.
Position N 47°44' W 003°22'.

Length 16 m; draft 2.5 m.

Type: Fishing. MMSI: 228133900.

Date/timePositionNaut miles runAvg speedWind from/ knotsBaromVisibWave heightAir tempDewpointWater temp
2017-Nov-18 02:44N 47°44' W 003°22'0 0.0
2017-Nov-18 02:29N 47°44' W 003°22'0 0.1
2017-Nov-18 02:00N 47°44' W 003°22'0 0.3
2017-Nov-18 01:29N 47°44' W 003°22'2 4.1
2017-Nov-18 01:00N 47°42' W 003°22'4 8.8
2017-Nov-18 00:30N 47°37' W 003°23'4 8.9
2017-Nov-18 00:00N 47°34' W 003°27'4 8.2
2017-Nov-17 23:30N 47°30' W 003°30'1 2.7
2017-Nov-17 23:00N 47°29' W 003°31'2 3.9
2017-Nov-17 22:30N 47°28' W 003°34'3 3.4
2017-Nov-17 21:33N 47°25' W 003°36'0 3.9
2017-Nov-17 21:27N 47°26' W 003°37'3 0.4
2017-Nov-17 15:28N 47°28' W 003°35'2 4.1
2017-Nov-17 14:59N 47°30' W 003°35'2 3.3
2017-Nov-17 14:30N 47°31' W 003°34'2 3.2
2017-Nov-17 14:00N 47°30' W 003°33'1 2.0
2017-Nov-17 13:29N 47°29' W 003°34'2 4.0
2017-Nov-17 13:00N 47°30' W 003°36'1 2.6
2017-Nov-17 12:30N 47°32' W 003°35'2 3.3
2017-Nov-17 12:00N 47°30' W 003°33'2 3.2
2017-Nov-17 11:30N 47°31' W 003°36'2 3.1
2017-Nov-17 11:00N 47°32' W 003°36'2 3.5
2017-Nov-17 10:29N 47°31' W 003°34'1 1.1
2017-Nov-17 10:00N 47°30' W 003°34'1 2.6
2017-Nov-17 09:28N 47°29' W 003°35'2 3.8
2017-Nov-17 09:00N 47°31' W 003°36'1 2.9
2017-Nov-17 08:30N 47°31' W 003°34'1 2.8
2017-Nov-17 08:00N 47°30' W 003°34'2 3.5
2017-Nov-17 07:30N 47°31' W 003°36'1 2.5
2017-Nov-17 07:00N 47°32' W 003°34'2 3.6
2017-Nov-17 06:30N 47°31' W 003°32'2 3.4
2017-Nov-17 06:00N 47°29' W 003°32'2 3.8
2017-Nov-17 05:30N 47°27' W 003°32'2 3.6
2017-Nov-17 04:52N 47°26' W 003°35'5 3.1
2017-Nov-17 03:12N 47°26' W 003°43'1 3.8
2017-Nov-17 02:54N 47°25' W 003°43'1 3.7
2017-Nov-17 02:30N 47°24' W 003°41'2 3.7
2017-Nov-17 02:00N 47°24' W 003°39'2 3.6
2017-Nov-17 01:30N 47°25' W 003°37'2 3.3
2017-Nov-17 01:00N 47°27' W 003°35'2 3.9
2017-Nov-17 00:30N 47°28' W 003°33'3 5.1
2017-Nov-17 00:00N 47°30' W 003°31'4 8.5
2017-Nov-16 23:30N 47°33' W 003°26'4 8.1
2017-Nov-16 23:00N 47°36' W 003°23'4 8.5
2017-Nov-16 22:30N 47°41' W 003°22'3 6.4
2017-Nov-16 22:00N 47°44' W 003°22'0 0.0
2017-Nov-16 21:30N 47°44' W 003°22'3 6.7
2017-Nov-16 21:00N 47°40' W 003°22'5 9.2
2017-Nov-16 20:30N 47°36' W 003°23'4 8.7
2017-Nov-16 20:00N 47°32' W 003°27'4 8.8
2017-Nov-16 19:30N 47°29' W 003°31'3 6.6
2017-Nov-16 19:00N 47°27' W 003°35'2 3.5
2017-Nov-16 18:20N 47°29' W 003°34'1 4.2
2017-Nov-16 18:00N 47°30' W 003°33'2 4.2
2017-Nov-16 17:30N 47°32' W 003°32'2 3.0
2017-Nov-16 16:58N 47°31' W 003°33'2 2.4
2017-Nov-16 16:19N 47°31' W 003°35'1 3.7
2017-Nov-16 15:59N 47°32' W 003°36'2 3.4
2017-Nov-16 15:29N 47°31' W 003°34'2 3.4
2017-Nov-16 15:00N 47°29' W 003°33'2 3.1
2017-Nov-16 14:23N 47°30' W 003°35'2 4.1
2017-Nov-16 13:59N 47°32' W 003°36'2 3.3
2017-Nov-16 13:30N 47°33' W 003°34'1 1.8
2017-Nov-16 13:00N 47°32' W 003°34'2 3.0
2017-Nov-16 12:23N 47°30' W 003°34'2 3.6
2017-Nov-16 11:51N 47°31' W 003°36'1 3.2
2017-Nov-16 11:30N 47°32' W 003°34'2 3.3
2017-Nov-16 10:49N 47°30' W 003°34'1 3.3
2017-Nov-16 10:27N 47°31' W 003°33'0 0.4
2017-Nov-16 09:30N 47°31' W 003°33'2 3.6
2017-Nov-16 08:58N 47°32' W 003°31'2 3.8
2017-Nov-16 08:31N 47°30' W 003°30'2 3.0
2017-Nov-16 07:59N 47°30' W 003°33'2 3.4
2017-Nov-16 07:30N 47°32' W 003°32'2 3.7
2017-Nov-16 07:01N 47°33' W 003°32'2 3.5
2017-Nov-16 06:30N 47°35' W 003°31'2 3.4
2017-Nov-16 06:00N 47°35' W 003°28'2 3.4
2017-Nov-16 05:30N 47°35' W 003°26'2 4.5
2017-Nov-16 05:01N 47°36' W 003°23'3 6.0
2017-Nov-16 04:31N 47°39' W 003°22'3 6.0
2017-Nov-16 04:01N 47°42' W 003°22'2 3.8
2017-Nov-16 03:30N 47°44' W 003°22'0 0.0
2017-Nov-16 03:00N 47°44' W 003°22'0 0.0
2017-Nov-16 02:30N 47°44' W 003°22'0 0.0
2017-Nov-16 01:59N 47°44' W 003°22'0 0.2
2017-Nov-16 01:30N 47°44' W 003°22'0 0.3
2017-Nov-16 00:58N 47°44' W 003°22'2 4.5
2017-Nov-16 00:30N 47°42' W 003°22'4 8.7
2017-Nov-16 00:00N 47°37' W 003°24'4 8.6
2017-Nov-15 23:30N 47°34' W 003°28'4 8.6
2017-Nov-15 23:00N 47°31' W 003°32'1 2.7
2017-Nov-15 22:30N 47°30' W 003°32'2 3.8
2017-Nov-15 22:00N 47°29' W 003°29'2 4.1
2017-Nov-15 21:30N 47°27' W 003°28'2 3.7
2017-Nov-15 20:58N 47°25' W 003°29'2 3.1
2017-Nov-15 20:27N 47°25' W 003°31'2 3.2
2017-Nov-15 19:47N 47°26' W 003°34'1 3.7
2017-Nov-15 19:26N 47°27' W 003°33'2 3.6
2017-Nov-15 18:55N 47°29' W 003°34'2 4.0
2017-Nov-15 18:28N 47°31' W 003°33'2 4.1
2017-Nov-15 18:00N 47°32' W 003°31'2 2.0
2017-Nov-15 16:58N 47°34' W 003°31'1 3.0
2017-Nov-15 16:30N 47°35' W 003°33'1 1.4
2017-Nov-15 15:27N 47°34' W 003°33'2 4.0
2017-Nov-15 14:59N 47°33' W 003°31'2 3.4
2017-Nov-15 14:30N 47°31' W 003°31'2 4.0
2017-Nov-15 14:00N 47°30' W 003°32'2 3.4
2017-Nov-15 13:29N 47°31' W 003°32'2 3.9
2017-Nov-15 13:00N 47°33' W 003°31'2 3.9
2017-Nov-15 12:28N 47°35' W 003°33'1 2.2
2017-Nov-15 12:00N 47°34' W 003°34'2 3.8
2017-Nov-15 11:30N 47°33' W 003°32'2 3.1
2017-Nov-15 11:00N 47°32' W 003°31'2 4.1
2017-Nov-15 10:30N 47°30' W 003°31'1 2.1
2017-Nov-15 10:00N 47°31' W 003°32'2 3.9
2017-Nov-15 09:30N 47°33' W 003°32'2 3.8
2017-Nov-15 09:00N 47°35' W 003°33'2 3.7
2017-Nov-15 08:29N 47°35' W 003°35'2 3.9
2017-Nov-15 08:00N 47°35' W 003°38'1 2.0
2017-Nov-15 07:21N 47°36' W 003°39'1 4.0
2017-Nov-15 07:00N 47°36' W 003°37'2 2.6
2017-Nov-15 06:13N 47°37' W 003°39'1 3.0
2017-Nov-15 06:00N 47°37' W 003°38'2 3.4
2017-Nov-15 05:30N 47°36' W 003°36'2 4.1
2017-Nov-15 05:00N 47°34' W 003°34'2 4.0
2017-Nov-15 04:30N 47°34' W 003°32'2 3.8
2017-Nov-15 04:00N 47°32' W 003°31'2 3.9
2017-Nov-15 03:30N 47°30' W 003°30'2 3.9
2017-Nov-15 03:00N 47°28' W 003°30'2 3.8
2017-Nov-15 02:28N 47°26' W 003°29'2 4.2
2017-Nov-15 01:59N 47°24' W 003°28'1 2.7
2017-Nov-15 01:26N 47°25' W 003°30'2 4.1
2017-Nov-15 01:00N 47°26' W 003°32'2 4.2
2017-Nov-15 00:30N 47°28' W 003°32'2 3.5
2017-Nov-15 00:00N 47°30' W 003°30'2 3.6
2017-Nov-14 23:30N 47°28' W 003°28'2 4.0
2017-Nov-14 23:00N 47°26' W 003°28'2 4.0
2017-Nov-14 22:30N 47°24' W 003°28'3 3.6
2017-Nov-14 21:40N 47°21' W 003°29'1 2.6
2017-Nov-14 21:27N 47°22' W 003°28'2 3.6
2017-Nov-14 21:00N 47°23' W 003°27'2 3.9
2017-Nov-14 20:30N 47°25' W 003°27'2 4.0
2017-Nov-14 20:00N 47°27' W 003°28'2 4.0
2017-Nov-14 19:30N 47°29' W 003°29'2 4.1
2017-Nov-14 19:00N 47°31' W 003°30'2 4.1
2017-Nov-14 18:30N 47°33' W 003°31'2 4.0
2017-Nov-14 18:00N 47°34' W 003°33'2 3.7
2017-Nov-14 17:30N 47°36' W 003°35'2 3.1
2017-Nov-14 16:58N 47°35' W 003°37'3 0.5
2017-Nov-14 11:09N 47°36' W 003°42'1 3.2
2017-Nov-14 10:46N 47°35' W 003°41'1 3.8
2017-Nov-14 10:30N 47°34' W 003°40'1 1.7
2017-Nov-14 09:55N 47°35' W 003°38'5 2.1
2017-Nov-14 07:44N 47°36' W 003°44'1 3.9
2017-Nov-14 07:29N 47°36' W 003°43'2 3.8
2017-Nov-14 07:00N 47°35' W 003°41'2 3.9
2017-Nov-14 06:30N 47°35' W 003°38'1 2.7
2017-Nov-14 06:00N 47°36' W 003°36'2 3.5
2017-Nov-14 05:30N 47°37' W 003°35'2 4.1
2017-Nov-14 05:00N 47°39' W 003°33'3 6.0
2017-Nov-14 04:30N 47°40' W 003°29'3 6.2
2017-Nov-14 04:00N 47°41' W 003°24'3 3.6
2017-Nov-14 03:09N 47°44' W 003°22'0 1.0
2017-Nov-14 02:59N 47°44' W 003°22'0 0.0
2017-Nov-14 02:29N 47°44' W 003°22'0 0.0
2017-Nov-14 01:59N 47°44' W 003°22'3 6.6
2017-Nov-14 01:30N 47°41' W 003°22'4 8.7
2017-Nov-14 01:00N 47°36' W 003°24'5 9.1
2017-Nov-14 00:30N 47°33' W 003°29'1 2.0
2017-Nov-13 23:57N 47°33' W 003°30'1 2.2
2017-Nov-13 23:30N 47°32' W 003°31'2 3.9
2017-Nov-13 23:00N 47°30' W 003°31'2 3.6
2017-Nov-13 22:29N 47°28' W 003°30'2 3.7
2017-Nov-13 22:00N 47°26' W 003°30'17 0.8
2017-Nov-13 01:58N 47°43' W 003°37'1 2.4
2017-Nov-13 01:30N 47°42' W 003°37'1 2.3
2017-Nov-13 00:55N 47°43' W 003°36'1 3.1
2017-Nov-13 00:29N 47°42' W 003°38'1 2.5
2017-Nov-12 23:57N 47°42' W 003°36'1 3.0
2017-Nov-12 23:29N 47°42' W 003°38'1 2.9
2017-Nov-12 22:59N 47°42' W 003°36'1 2.8
2017-Nov-12 22:29N 47°42' W 003°38'1 0.7
2017-Nov-12 21:21N 47°43' W 003°37'1 3.4
2017-Nov-12 21:00N 47°42' W 003°36'8 2.9
2017-Nov-12 18:11N 47°35' W 003°40'1 3.3
2017-Nov-12 17:44N 47°34' W 003°38'1 1.6
2017-Nov-12 16:54N 47°34' W 003°40'3 0.9
2017-Nov-12 13:45N 47°36' W 003°43'1 2.2
2017-Nov-12 13:13N 47°35' W 003°42'1 3.4
2017-Nov-12 13:00N 47°35' W 003°41'2 0.1
2017-Nov-11 07:30N 47°36' W 003°43'2 3.4
2017-Nov-11 06:51N 47°34' W 003°40'1 3.2
2017-Nov-11 06:30N 47°35' W 003°39'1 2.7
2017-Nov-11 06:00N 47°36' W 003°38'2 3.2
2017-Nov-11 05:30N 47°37' W 003°36'2 4.7
2017-Nov-11 05:00N 47°39' W 003°33'3 6.4
2017-Nov-11 04:30N 47°40' W 003°29'3 6.4
2017-Nov-11 03:59N 47°41' W 003°24'3 6.7
2017-Nov-11 03:30N 47°44' W 003°22'0 0.0
2017-Nov-11 03:00N 47°44' W 003°22'0 0.1
2017-Nov-11 02:30N 47°44' W 003°22'0 0.2
2017-Nov-11 01:38N 47°44' W 003°22'0 3.3
2017-Nov-11 01:30N 47°43' W 003°22'4 7.7
2017-Nov-11 01:00N 47°41' W 003°26'4 8.5
2017-Nov-11 00:29N 47°39' W 003°32'4 8.0
2017-Nov-11 00:00N 47°35' W 003°33'1 2.8
2017-Nov-10 23:29N 47°34' W 003°34'2 4.0
2017-Nov-10 22:57N 47°36' W 003°36'3 3.4
2017-Nov-10 22:10N 47°37' W 003°39'1 3.6
2017-Nov-10 21:57N 47°36' W 003°40'2 3.3
2017-Nov-10 21:29N 47°35' W 003°38'2 3.0
2017-Nov-10 20:59N 47°35' W 003°36'3 2.1
2017-Nov-10 19:41N 47°35' W 003°40'1 3.3
2017-Nov-10 19:30N 47°35' W 003°39'1 1.0
2017-Nov-10 18:29N 47°36' W 003°40'1 2.7
2017-Nov-10 18:00N 47°35' W 003°38'1 0.1
2017-Nov-10 05:46N 47°35' W 003°40'1 3.4
2017-Nov-10 05:30N 47°35' W 003°39'2 3.4
2017-Nov-10 04:58N 47°36' W 003°37'2 3.3
2017-Nov-10 04:30N 47°37' W 003°35'3 6.1
2017-Nov-10 04:00N 47°39' W 003°31'4 7.9
2017-Nov-10 03:30N 47°41' W 003°26'4 7.6
2017-Nov-10 03:00N 47°43' W 003°22'0 0.9
2017-Nov-10 02:29N 47°44' W 003°22'3 6.5
2017-Nov-10 02:00N 47°41' W 003°24'4 8.8
2017-Nov-10 01:30N 47°40' W 003°30'4 7.8
2017-Nov-10 01:00N 47°36' W 003°33'2 3.3
2017-Nov-10 00:30N 47°35' W 003°33'2 3.7
2017-Nov-10 00:00N 47°33' W 003°31'2 3.7
2017-Nov-09 23:30N 47°31' W 003°31'2 3.7
2017-Nov-09 23:00N 47°30' W 003°30'2 3.6
2017-Nov-09 22:30N 47°28' W 003°29'2 3.6
2017-Nov-09 21:59N 47°26' W 003°28'2 3.6
2017-Nov-09 21:30N 47°24' W 003°27'1 1.2
2017-Nov-09 20:46N 47°24' W 003°29'1 4.1
2017-Nov-09 20:26N 47°25' W 003°30'4 4.0
2017-Nov-09 19:29N 47°28' W 003°34'2 3.9
2017-Nov-09 18:57N 47°30' W 003°35'2 3.9
2017-Nov-09 18:29N 47°32' W 003°36'4 0.3
2017-Nov-09 05:59N 47°35' W 003°40'1 2.9
2017-Nov-09 05:30N 47°35' W 003°39'2 4.2
2017-Nov-09 05:00N 47°37' W 003°36'3 5.4
2017-Nov-09 04:30N 47°39' W 003°33'3 6.7
2017-Nov-09 04:00N 47°40' W 003°29'4 7.4
2017-Nov-09 03:30N 47°41' W 003°23'3 4.7
2017-Nov-09 02:58N 47°44' W 003°22'0 0.4
2017-Nov-09 02:30N 47°44' W 003°22'0 0.0
2017-Nov-09 02:00N 47°44' W 003°22'1 1.9
2017-Nov-09 01:30N 47°43' W 003°22'4 8.4
2017-Nov-09 01:00N 47°40' W 003°27'4 8.4
2017-Nov-09 00:30N 47°38' W 003°33'3 6.7
2017-Nov-09 00:00N 47°35' W 003°33'2 3.1
2017-Nov-08 23:30N 47°34' W 003°32'2 3.6
2017-Nov-08 23:00N 47°32' W 003°31'2 3.6
2017-Nov-08 22:30N 47°30' W 003°32'2 3.6
2017-Nov-08 22:00N 47°29' W 003°30'2 3.6
2017-Nov-08 21:31N 47°31' W 003°29'2 3.9
2017-Nov-08 21:00N 47°33' W 003°30'2 3.5
2017-Nov-08 20:29N 47°35' W 003°31'2 4.0
2017-Nov-08 20:00N 47°35' W 003°34'9 2.5
2017-Nov-08 16:26N 47°35' W 003°47'4 0.4
2017-Nov-08 06:41N 47°38' W 003°45'1 3.6
2017-Nov-08 06:29N 47°38' W 003°44'4 5.6
2017-Nov-08 05:41N 47°40' W 003°38'1 7.0
2017-Nov-08 05:30N 47°41' W 003°37'1 2.9
2017-Nov-08 05:00N 47°42' W 003°36'1 1.9
2017-Nov-08 04:22N 47°42' W 003°37'1 2.9
2017-Nov-08 04:00N 47°43' W 003°36'1 1.1
2017-Nov-08 03:12N 47°43' W 003°37'1 3.3
2017-Nov-08 03:00N 47°43' W 003°36'  
Track history (hours):
 
Tides and Currents Weather Stations Pressure Air Temp Water Temp Dewpoint Dewpoint Depression Visibility Wind Speed Wind Dir Waves Ship Positions

F/V Hebeilan

Last reported at 2017-Nov-18 02:44 UTC. Time now 2017-Nov-19 07:02 UTC.
Position N 47°44' W 003°22'.

Length 16 m; draft 2.5 m.

Type: Fishing. MMSI: 228133900.

Date/timePositionNaut miles runAvg speedWind from/ knotsBaromVisibWave heightAir tempDewpointWater temp
2017-Nov-18 02:44N 47°44' W 003°22'0 0.0
2017-Nov-18 02:29N 47°44' W 003°22'0 0.1
2017-Nov-18 02:00N 47°44' W 003°22'0 0.3
2017-Nov-18 01:29N 47°44' W 003°22'2 4.1
2017-Nov-18 01:00N 47°42' W 003°22'4 8.8
2017-Nov-18 00:30N 47°37' W 003°23'4 8.9
2017-Nov-18 00:00N 47°34' W 003°27'4 8.2
2017-Nov-17 23:30N 47°30' W 003°30'1 2.7
2017-Nov-17 23:00N 47°29' W 003°31'2 3.9
2017-Nov-17 22:30N 47°28' W 003°34'3 3.4
2017-Nov-17 21:33N 47°25' W 003°36'0 3.9
2017-Nov-17 21:27N 47°26' W 003°37'3 0.4
2017-Nov-17 15:28N 47°28' W 003°35'2 4.1
2017-Nov-17 14:59N 47°30' W 003°35'2 3.3
2017-Nov-17 14:30N 47°31' W 003°34'2 3.2
2017-Nov-17 14:00N 47°30' W 003°33'1 2.0
2017-Nov-17 13:29N 47°29' W 003°34'2 4.0
2017-Nov-17 13:00N 47°30' W 003°36'1 2.6
2017-Nov-17 12:30N 47°32' W 003°35'2 3.3
2017-Nov-17 12:00N 47°30' W 003°33'2 3.2
2017-Nov-17 11:30N 47°31' W 003°36'2 3.1
2017-Nov-17 11:00N 47°32' W 003°36'2 3.5
2017-Nov-17 10:29N 47°31' W 003°34'1 1.1
2017-Nov-17 10:00N 47°30' W 003°34'1 2.6
2017-Nov-17 09:28N 47°29' W 003°35'2 3.8
2017-Nov-17 09:00N 47°31' W 003°36'1 2.9
2017-Nov-17 08:30N 47°31' W 003°34'1 2.8
2017-Nov-17 08:00N 47°30' W 003°34'2 3.5
2017-Nov-17 07:30N 47°31' W 003°36'1 2.5
2017-Nov-17 07:00N 47°32' W 003°34'2 3.6
2017-Nov-17 06:30N 47°31' W 003°32'2 3.4
2017-Nov-17 06:00N 47°29' W 003°32'2 3.8
2017-Nov-17 05:30N 47°27' W 003°32'2 3.6
2017-Nov-17 04:52N 47°26' W 003°35'5 3.1
2017-Nov-17 03:12N 47°26' W 003°43'1 3.8
2017-Nov-17 02:54N 47°25' W 003°43'1 3.7
2017-Nov-17 02:30N 47°24' W 003°41'2 3.7
2017-Nov-17 02:00N 47°24' W 003°39'2 3.6
2017-Nov-17 01:30N 47°25' W 003°37'2 3.3
2017-Nov-17 01:00N 47°27' W 003°35'2 3.9
2017-Nov-17 00:30N 47°28' W 003°33'3 5.1
2017-Nov-17 00:00N 47°30' W 003°31'4 8.5
2017-Nov-16 23:30N 47°33' W 003°26'4 8.1
2017-Nov-16 23:00N 47°36' W 003°23'4 8.5
2017-Nov-16 22:30N 47°41' W 003°22'3 6.4
2017-Nov-16 22:00N 47°44' W 003°22'0 0.0
2017-Nov-16 21:30N 47°44' W 003°22'3 6.7
2017-Nov-16 21:00N 47°40' W 003°22'5 9.2
2017-Nov-16 20:30N 47°36' W 003°23'4 8.7
2017-Nov-16 20:00N 47°32' W 003°27'4 8.8
2017-Nov-16 19:30N 47°29' W 003°31'3 6.6
2017-Nov-16 19:00N 47°27' W 003°35'2 3.5
2017-Nov-16 18:20N 47°29' W 003°34'1 4.2
2017-Nov-16 18:00N 47°30' W 003°33'2 4.2
2017-Nov-16 17:30N 47°32' W 003°32'2 3.0
2017-Nov-16 16:58N 47°31' W 003°33'2 2.4
2017-Nov-16 16:19N 47°31' W 003°35'1 3.7
2017-Nov-16 15:59N 47°32' W 003°36'2 3.4
2017-Nov-16 15:29N 47°31' W 003°34'2 3.4
2017-Nov-16 15:00N 47°29' W 003°33'2 3.1
2017-Nov-16 14:23N 47°30' W 003°35'2 4.1
2017-Nov-16 13:59N 47°32' W 003°36'2 3.3
2017-Nov-16 13:30N 47°33' W 003°34'1 1.8
2017-Nov-16 13:00N 47°32' W 003°34'2 3.0
2017-Nov-16 12:23N 47°30' W 003°34'2 3.6
2017-Nov-16 11:51N 47°31' W 003°36'1 3.2
2017-Nov-16 11:30N 47°32' W 003°34'2 3.3
2017-Nov-16 10:49N 47°30' W 003°34'1 3.3
2017-Nov-16 10:27N 47°31' W 003°33'0 0.4
2017-Nov-16 09:30N 47°31' W 003°33'2 3.6
2017-Nov-16 08:58N 47°32' W 003°31'2 3.8
2017-Nov-16 08:31N 47°30' W 003°30'2 3.0
2017-Nov-16 07:59N 47°30' W 003°33'2 3.4
2017-Nov-16 07:30N 47°32' W 003°32'2 3.7
2017-Nov-16 07:01N 47°33' W 003°32'2 3.5
2017-Nov-16 06:30N 47°35' W 003°31'2 3.4
2017-Nov-16 06:00N 47°35' W 003°28'2 3.4
2017-Nov-16 05:30N 47°35' W 003°26'2 4.5
2017-Nov-16 05:01N 47°36' W 003°23'3 6.0
2017-Nov-16 04:31N 47°39' W 003°22'3 6.0
2017-Nov-16 04:01N 47°42' W 003°22'2 3.8
2017-Nov-16 03:30N 47°44' W 003°22'0 0.0
2017-Nov-16 03:00N 47°44' W 003°22'0 0.0
2017-Nov-16 02:30N 47°44' W 003°22'0 0.0
2017-Nov-16 01:59N 47°44' W 003°22'0 0.2
2017-Nov-16 01:30N 47°44' W 003°22'0 0.3
2017-Nov-16 00:58N 47°44' W 003°22'2 4.5
2017-Nov-16 00:30N 47°42' W 003°22'4 8.7
2017-Nov-16 00:00N 47°37' W 003°24'4 8.6
2017-Nov-15 23:30N 47°34' W 003°28'4 8.6
2017-Nov-15 23:00N 47°31' W 003°32'1 2.7
2017-Nov-15 22:30N 47°30' W 003°32'2 3.8
2017-Nov-15 22:00N 47°29' W 003°29'2 4.1
2017-Nov-15 21:30N 47°27' W 003°28'2 3.7
2017-Nov-15 20:58N 47°25' W 003°29'2 3.1
2017-Nov-15 20:27N 47°25' W 003°31'2 3.2
2017-Nov-15 19:47N 47°26' W 003°34'1 3.7
2017-Nov-15 19:26N 47°27' W 003°33'2 3.6
2017-Nov-15 18:55N 47°29' W 003°34'2 4.0
2017-Nov-15 18:28N 47°31' W 003°33'2 4.1
2017-Nov-15 18:00N 47°32' W 003°31'2 2.0
2017-Nov-15 16:58N 47°34' W 003°31'1 3.0
2017-Nov-15 16:30N 47°35' W 003°33'1 1.4
2017-Nov-15 15:27N 47°34' W 003°33'2 4.0
2017-Nov-15 14:59N 47°33' W 003°31'2 3.4
2017-Nov-15 14:30N 47°31' W 003°31'2 4.0
2017-Nov-15 14:00N 47°30' W 003°32'2 3.4
2017-Nov-15 13:29N 47°31' W 003°32'2 3.9
2017-Nov-15 13:00N 47°33' W 003°31'2 3.9
2017-Nov-15 12:28N 47°35' W 003°33'1 2.2
2017-Nov-15 12:00N 47°34' W 003°34'2 3.8
2017-Nov-15 11:30N 47°33' W 003°32'2 3.1
2017-Nov-15 11:00N 47°32' W 003°31'2 4.1
2017-Nov-15 10:30N 47°30' W 003°31'1 2.1
2017-Nov-15 10:00N 47°31' W 003°32'2 3.9
2017-Nov-15 09:30N 47°33' W 003°32'2 3.8
2017-Nov-15 09:00N 47°35' W 003°33'2 3.7
2017-Nov-15 08:29N 47°35' W 003°35'2 3.9
2017-Nov-15 08:00N 47°35' W 003°38'1 2.0
2017-Nov-15 07:21N 47°36' W 003°39'1 4.0
2017-Nov-15 07:00N 47°36' W 003°37'2 2.6
2017-Nov-15 06:13N 47°37' W 003°39'1 3.0
2017-Nov-15 06:00N 47°37' W 003°38'2 3.4
2017-Nov-15 05:30N 47°36' W 003°36'2 4.1
2017-Nov-15 05:00N 47°34' W 003°34'2 4.0
2017-Nov-15 04:30N 47°34' W 003°32'2 3.8
2017-Nov-15 04:00N 47°32' W 003°31'2 3.9
2017-Nov-15 03:30N 47°30' W 003°30'2 3.9
2017-Nov-15 03:00N 47°28' W 003°30'2 3.8
2017-Nov-15 02:28N 47°26' W 003°29'2 4.2
2017-Nov-15 01:59N 47°24' W 003°28'1 2.7
2017-Nov-15 01:26N 47°25' W 003°30'2 4.1
2017-Nov-15 01:00N 47°26' W 003°32'2 4.2
2017-Nov-15 00:30N 47°28' W 003°32'2 3.5
2017-Nov-15 00:00N 47°30' W 003°30'2 3.6
2017-Nov-14 23:30N 47°28' W 003°28'2 4.0
2017-Nov-14 23:00N 47°26' W 003°28'2 4.0
2017-Nov-14 22:30N 47°24' W 003°28'3 3.6
2017-Nov-14 21:40N 47°21' W 003°29'1 2.6
2017-Nov-14 21:27N 47°22' W 003°28'2 3.6
2017-Nov-14 21:00N 47°23' W 003°27'2 3.9
2017-Nov-14 20:30N 47°25' W 003°27'2 4.0
2017-Nov-14 20:00N 47°27' W 003°28'2 4.0
2017-Nov-14 19:30N 47°29' W 003°29'2 4.1
2017-Nov-14 19:00N 47°31' W 003°30'2 4.1
2017-Nov-14 18:30N 47°33' W 003°31'2 4.0
2017-Nov-14 18:00N 47°34' W 003°33'2 3.7
2017-Nov-14 17:30N 47°36' W 003°35'2 3.1
2017-Nov-14 16:58N 47°35' W 003°37'3 0.5
2017-Nov-14 11:09N 47°36' W 003°42'1 3.2
2017-Nov-14 10:46N 47°35' W 003°41'1 3.8
2017-Nov-14 10:30N 47°34' W 003°40'1 1.7
2017-Nov-14 09:55N 47°35' W 003°38'5 2.1
2017-Nov-14 07:44N 47°36' W 003°44'1 3.9
2017-Nov-14 07:29N 47°36' W 003°43'2 3.8
2017-Nov-14 07:00N 47°35' W 003°41'2 3.9
2017-Nov-14 06:30N 47°35' W 003°38'1 2.7
2017-Nov-14 06:00N 47°36' W 003°36'2 3.5
2017-Nov-14 05:30N 47°37' W 003°35'2 4.1
2017-Nov-14 05:00N 47°39' W 003°33'3 6.0
2017-Nov-14 04:30N 47°40' W 003°29'3 6.2
2017-Nov-14 04:00N 47°41' W 003°24'3 3.6
2017-Nov-14 03:09N 47°44' W 003°22'0 1.0
2017-Nov-14 02:59N 47°44' W 003°22'0 0.0
2017-Nov-14 02:29N 47°44' W 003°22'0 0.0
2017-Nov-14 01:59N 47°44' W 003°22'3 6.6
2017-Nov-14 01:30N 47°41' W 003°22'4 8.7
2017-Nov-14 01:00N 47°36' W 003°24'5 9.1
2017-Nov-14 00:30N 47°33' W 003°29'1 2.0
2017-Nov-13 23:57N 47°33' W 003°30'1 2.2
2017-Nov-13 23:30N 47°32' W 003°31'2 3.9
2017-Nov-13 23:00N 47°30' W 003°31'2 3.6
2017-Nov-13 22:29N 47°28' W 003°30'2 3.7
2017-Nov-13 22:00N 47°26' W 003°30'17 0.8
2017-Nov-13 01:58N 47°43' W 003°37'1 2.4
2017-Nov-13 01:30N 47°42' W 003°37'1 2.3
2017-Nov-13 00:55N 47°43' W 003°36'1 3.1
2017-Nov-13 00:29N 47°42' W 003°38'1 2.5
2017-Nov-12 23:57N 47°42' W 003°36'1 3.0
2017-Nov-12 23:29N 47°42' W 003°38'1 2.9
2017-Nov-12 22:59N 47°42' W 003°36'1 2.8
2017-Nov-12 22:29N 47°42' W 003°38'1 0.7
2017-Nov-12 21:21N 47°43' W 003°37'1 3.4
2017-Nov-12 21:00N 47°42' W 003°36'8 2.9
2017-Nov-12 18:11N 47°35' W 003°40'1 3.3
2017-Nov-12 17:44N 47°34' W 003°38'1 1.6
2017-Nov-12 16:54N 47°34' W 003°40'3 0.9
2017-Nov-12 13:45N 47°36' W 003°43'1 2.2
2017-Nov-12 13:13N 47°35' W 003°42'1 3.4
2017-Nov-12 13:00N 47°35' W 003°41'2 0.1
2017-Nov-11 07:30N 47°36' W 003°43'2 3.4
2017-Nov-11 06:51N 47°34' W 003°40'1 3.2
2017-Nov-11 06:30N 47°35' W 003°39'1 2.7
2017-Nov-11 06:00N 47°36' W 003°38'2 3.2
2017-Nov-11 05:30N 47°37' W 003°36'2 4.7
2017-Nov-11 05:00N 47°39' W 003°33'3 6.4
2017-Nov-11 04:30N 47°40' W 003°29'3 6.4
2017-Nov-11 03:59N 47°41' W 003°24'3 6.7
2017-Nov-11 03:30N 47°44' W 003°22'0 0.0
2017-Nov-11 03:00N 47°44' W 003°22'0 0.1
2017-Nov-11 02:30N 47°44' W 003°22'0 0.2
2017-Nov-11 01:38N 47°44' W 003°22'0 3.3
2017-Nov-11 01:30N 47°43' W 003°22'4 7.7
2017-Nov-11 01:00N 47°41' W 003°26'4 8.5
2017-Nov-11 00:29N 47°39' W 003°32'4 8.0
2017-Nov-11 00:00N 47°35' W 003°33'1 2.8
2017-Nov-10 23:29N 47°34' W 003°34'2 4.0
2017-Nov-10 22:57N 47°36' W 003°36'3 3.4
2017-Nov-10 22:10N 47°37' W 003°39'1 3.6
2017-Nov-10 21:57N 47°36' W 003°40'2 3.3
2017-Nov-10 21:29N 47°35' W 003°38'2 3.0
2017-Nov-10 20:59N 47°35' W 003°36'3 2.1
2017-Nov-10 19:41N 47°35' W 003°40'1 3.3
2017-Nov-10 19:30N 47°35' W 003°39'1 1.0
2017-Nov-10 18:29N 47°36' W 003°40'1 2.7
2017-Nov-10 18:00N 47°35' W 003°38'1 0.1
2017-Nov-10 05:46N 47°35' W 003°40'1 3.4
2017-Nov-10 05:30N 47°35' W 003°39'2 3.4
2017-Nov-10 04:58N 47°36' W 003°37'2 3.3
2017-Nov-10 04:30N 47°37' W 003°35'3 6.1
2017-Nov-10 04:00N 47°39' W 003°31'4 7.9
2017-Nov-10 03:30N 47°41' W 003°26'4 7.6
2017-Nov-10 03:00N 47°43' W 003°22'0 0.9
2017-Nov-10 02:29N 47°44' W 003°22'3 6.5
2017-Nov-10 02:00N 47°41' W 003°24'4 8.8
2017-Nov-10 01:30N 47°40' W 003°30'4 7.8
2017-Nov-10 01:00N 47°36' W 003°33'2 3.3
2017-Nov-10 00:30N 47°35' W 003°33'2 3.7
2017-Nov-10 00:00N 47°33' W 003°31'2 3.7
2017-Nov-09 23:30N 47°31' W 003°31'2 3.7
2017-Nov-09 23:00N 47°30' W 003°30'2 3.6
2017-Nov-09 22:30N 47°28' W 003°29'2 3.6
2017-Nov-09 21:59N 47°26' W 003°28'2 3.6
2017-Nov-09 21:30N 47°24' W 003°27'1 1.2
2017-Nov-09 20:46N 47°24' W 003°29'1 4.1
2017-Nov-09 20:26N 47°25' W 003°30'4 4.0
2017-Nov-09 19:29N 47°28' W 003°34'2 3.9
2017-Nov-09 18:57N 47°30' W 003°35'2 3.9
2017-Nov-09 18:29N 47°32' W 003°36'4 0.3
2017-Nov-09 05:59N 47°35' W 003°40'1 2.9
2017-Nov-09 05:30N 47°35' W 003°39'2 4.2
2017-Nov-09 05:00N 47°37' W 003°36'3 5.4
2017-Nov-09 04:30N 47°39' W 003°33'3 6.7
2017-Nov-09 04:00N 47°40' W 003°29'4 7.4
2017-Nov-09 03:30N 47°41' W 003°23'3 4.7
2017-Nov-09 02:58N 47°44' W 003°22'0 0.4
2017-Nov-09 02:30N 47°44' W 003°22'0 0.0
2017-Nov-09 02:00N 47°44' W 003°22'1 1.9
2017-Nov-09 01:30N 47°43' W 003°22'4 8.4
2017-Nov-09 01:00N 47°40' W 003°27'4 8.4
2017-Nov-09 00:30N 47°38' W 003°33'3 6.7
2017-Nov-09 00:00N 47°35' W 003°33'2 3.1
2017-Nov-08 23:30N 47°34' W 003°32'2 3.6
2017-Nov-08 23:00N 47°32' W 003°31'2 3.6
2017-Nov-08 22:30N 47°30' W 003°32'2 3.6
2017-Nov-08 22:00N 47°29' W 003°30'2 3.6
2017-Nov-08 21:31N 47°31' W 003°29'2 3.9
2017-Nov-08 21:00N 47°33' W 003°30'2 3.5
2017-Nov-08 20:29N 47°35' W 003°31'2 4.0
2017-Nov-08 20:00N 47°35' W 003°34'9 2.5
2017-Nov-08 16:26N 47°35' W 003°47'4 0.4
2017-Nov-08 06:41N 47°38' W 003°45'1 3.6
2017-Nov-08 06:29N 47°38' W 003°44'4 5.6
2017-Nov-08 05:41N 47°40' W 003°38'1 7.0
2017-Nov-08 05:30N 47°41' W 003°37'1 2.9
2017-Nov-08 05:00N 47°42' W 003°36'1 1.9
2017-Nov-08 04:22N 47°42' W 003°37'1 2.9
2017-Nov-08 04:00N 47°43' W 003°36'1 1.1
2017-Nov-08 03:12N 47°43' W 003°37'1 3.3
2017-Nov-08 03:00N 47°43' W 003°36'  

Dump ship's entire track history